sensor_id;sensor_type;location;lat;lon;timestamp;pressure;altitude;pressure_sealevel;temperature;humidity
12182;BME280;6154;51.550;12.138;2023-11-18T00:00:32;101307.41;;;8.47;67.40
12182;BME280;6154;51.550;12.138;2023-11-18T00:03:01;101303.72;;;8.51;67.11
12182;BME280;6154;51.550;12.138;2023-11-18T00:05:29;101303.53;;;8.29;67.85
12182;BME280;6154;51.550;12.138;2023-11-18T00:07:57;101306.66;;;8.43;67.48
12182;BME280;6154;51.550;12.138;2023-11-18T00:10:29;101303.09;;;8.44;67.44
12182;BME280;6154;51.550;12.138;2023-11-18T00:12:58;101302.13;;;8.47;67.33
12182;BME280;6154;51.550;12.138;2023-11-18T00:15:28;101309.22;;;8.45;67.44
12182;BME280;6154;51.550;12.138;2023-11-18T00:17:56;101306.72;;;8.40;67.61
12182;BME280;6154;51.550;12.138;2023-11-18T00:20:25;101306.09;;;8.32;67.75
12182;BME280;6154;51.550;12.138;2023-11-18T00:22:53;101304.50;;;8.26;67.99
12182;BME280;6154;51.550;12.138;2023-11-18T00:25:22;101316.50;;;8.37;67.88
12182;BME280;6154;51.550;12.138;2023-11-18T00:27:50;101317.19;;;8.43;67.65
12182;BME280;6154;51.550;12.138;2023-11-18T00:30:20;101320.53;;;8.48;67.65
12182;BME280;6154;51.550;12.138;2023-11-18T00:32:50;101324.03;;;8.49;67.52
12182;BME280;6154;51.550;12.138;2023-11-18T00:35:18;101326.03;;;8.42;67.64
12182;BME280;6154;51.550;12.138;2023-11-18T00:37:46;101330.22;;;8.48;67.63
12182;BME280;6154;51.550;12.138;2023-11-18T00:40:15;101327.22;;;8.58;67.26
12182;BME280;6154;51.550;12.138;2023-11-18T00:42:44;101320.06;;;8.63;67.02
12182;BME280;6154;51.550;12.138;2023-11-18T00:45:13;101317.19;;;8.43;67.28
12182;BME280;6154;51.550;12.138;2023-11-18T00:47:42;101314.66;;;8.67;66.98
12182;BME280;6154;51.550;12.138;2023-11-18T00:50:10;101309.97;;;8.48;67.41
12182;BME280;6154;51.550;12.138;2023-11-18T00:52:39;101318.63;;;8.53;67.30
12182;BME280;6154;51.550;12.138;2023-11-18T00:55:08;101314.97;;;8.57;66.97
12182;BME280;6154;51.550;12.138;2023-11-18T00:57:38;101314.22;;;8.54;67.12
12182;BME280;6154;51.550;12.138;2023-11-18T01:00:08;101314.97;;;8.57;66.87
12182;BME280;6154;51.550;12.138;2023-11-18T01:02:43;101321.34;;;8.50;66.80
12182;BME280;6154;51.550;12.138;2023-11-18T01:05:12;101320.81;;;8.39;67.13
12182;BME280;6154;51.550;12.138;2023-11-18T01:07:41;101312.25;;;8.31;67.34
12182;BME280;6154;51.550;12.138;2023-11-18T01:10:10;101317.56;;;8.29;67.16
12182;BME280;6154;51.550;12.138;2023-11-18T01:12:39;101313.44;;;8.21;67.30
12182;BME280;6154;51.550;12.138;2023-11-18T01:15:07;101302.13;;;8.17;67.18
12182;BME280;6154;51.550;12.138;2023-11-18T01:17:37;101305.09;;;8.06;67.46
12182;BME280;6154;51.550;12.138;2023-11-18T01:20:08;101311.41;;;8.02;67.31
12182;BME280;6154;51.550;12.138;2023-11-18T01:22:38;101308.28;;;7.88;67.59
12182;BME280;6154;51.550;12.138;2023-11-18T01:25:08;101310.94;;;7.88;67.36
12182;BME280;6154;51.550;12.138;2023-11-18T01:27:36;101308.44;;;7.84;67.52
12182;BME280;6154;51.550;12.138;2023-11-18T01:30:05;101313.94;;;7.76;67.78
12182;BME280;6154;51.550;12.138;2023-11-18T01:32:34;101317.09;;;7.58;68.75
12182;BME280;6154;51.550;12.138;2023-11-18T01:35:04;101316.88;;;7.65;68.54
12182;BME280;6154;51.550;12.138;2023-11-18T01:37:34;101316.81;;;7.67;68.15
12182;BME280;6154;51.550;12.138;2023-11-18T01:40:04;101316.09;;;7.62;68.20
12182;BME280;6154;51.550;12.138;2023-11-18T01:42:34;101310.84;;;7.62;67.79
12182;BME280;6154;51.550;12.138;2023-11-18T01:45:04;101307.56;;;7.54;67.39
12182;BME280;6154;51.550;12.138;2023-11-18T01:47:38;101307.63;;;7.50;67.26
12182;BME280;6154;51.550;12.138;2023-11-18T01:50:08;101310.50;;;7.43;67.35
12182;BME280;6154;51.550;12.138;2023-11-18T01:52:40;101307.97;;;7.38;66.99
12182;BME280;6154;51.550;12.138;2023-11-18T01:55:13;101318.75;;;7.29;66.93
12182;BME280;6154;51.550;12.138;2023-11-18T01:57:41;101319.84;;;7.22;66.99
12182;BME280;6154;51.550;12.138;2023-11-18T02:00:12;101323.47;;;7.16;66.76
12182;BME280;6154;51.550;12.138;2023-11-18T02:02:42;101322.09;;;7.03;66.91
12182;BME280;6154;51.550;12.138;2023-11-18T02:05:11;101326.72;;;6.94;67.03
12182;BME280;6154;51.550;12.138;2023-11-18T02:07:41;101320.75;;;6.87;67.08
12182;BME280;6154;51.550;12.138;2023-11-18T02:10:10;101321.75;;;6.81;66.97
12182;BME280;6154;51.550;12.138;2023-11-18T02:12:44;101332.44;;;6.75;66.91
12182;BME280;6154;51.550;12.138;2023-11-18T02:15:16;101329.13;;;6.67;66.95
12182;BME280;6154;51.550;12.138;2023-11-18T02:17:45;101340.69;;;6.60;66.98
12182;BME280;6154;51.550;12.138;2023-11-18T02:20:14;101348.72;;;6.54;67.06
12182;BME280;6154;51.550;12.138;2023-11-18T02:22:48;101353.19;;;6.50;67.19
12182;BME280;6154;51.550;12.138;2023-11-18T02:25:17;101350.66;;;6.46;67.07
12182;BME280;6154;51.550;12.138;2023-11-18T02:27:47;101349.03;;;6.42;67.22
12182;BME280;6154;51.550;12.138;2023-11-18T02:30:16;101359.59;;;6.39;67.28
12182;BME280;6154;51.550;12.138;2023-11-18T02:32:47;101350.97;;;6.33;67.38
12182;BME280;6154;51.550;12.138;2023-11-18T02:35:24;101355.37;;;6.31;67.49
12182;BME280;6154;51.550;12.138;2023-11-18T02:37:54;101353.72;;;6.27;67.80
12182;BME280;6154;51.550;12.138;2023-11-18T02:40:27;101362.50;;;6.26;67.48
12182;BME280;6154;51.550;12.138;2023-11-18T02:43:00;101366.00;;;6.27;67.36
12182;BME280;6154;51.550;12.138;2023-11-18T02:45:29;101365.19;;;6.23;67.39
12182;BME280;6154;51.550;12.138;2023-11-18T02:47:58;101373.91;;;6.25;67.72
12182;BME280;6154;51.550;12.138;2023-11-18T02:50:27;101374.03;;;6.19;68.56
12182;BME280;6154;51.550;12.138;2023-11-18T02:52:56;101370.38;;;6.26;67.96
12182;BME280;6154;51.550;12.138;2023-11-18T02:55:24;101372.19;;;6.24;68.22
12182;BME280;6154;51.550;12.138;2023-11-18T02:57:53;101367.75;;;6.26;68.04
12182;BME280;6154;51.550;12.138;2023-11-18T03:00:23;101371.25;;;6.27;68.12
12182;BME280;6154;51.550;12.138;2023-11-18T03:02:51;101383.56;;;6.25;67.71
12182;BME280;6154;51.550;12.138;2023-11-18T03:05:20;101379.28;;;6.19;67.60
12182;BME280;6154;51.550;12.138;2023-11-18T03:07:49;101382.06;;;6.13;67.41
12182;BME280;6154;51.550;12.138;2023-11-18T03:10:20;101372.47;;;6.12;67.56
12182;BME280;6154;51.550;12.138;2023-11-18T03:12:49;101377.72;;;6.12;67.40
12182;BME280;6154;51.550;12.138;2023-11-18T03:15:20;101373.31;;;6.11;67.27
12182;BME280;6154;51.550;12.138;2023-11-18T03:17:50;101380.41;;;6.08;67.28
12182;BME280;6154;51.550;12.138;2023-11-18T03:20:20;101380.50;;;6.04;67.13
12182;BME280;6154;51.550;12.138;2023-11-18T03:22:50;101384.09;;;5.99;67.21
12182;BME280;6154;51.550;12.138;2023-11-18T03:25:20;101386.88;;;5.90;67.16
12182;BME280;6154;51.550;12.138;2023-11-18T03:27:49;101383.44;;;5.88;67.34
12182;BME280;6154;51.550;12.138;2023-11-18T03:30:18;101379.00;;;5.90;67.42
12182;BME280;6154;51.550;12.138;2023-11-18T03:32:46;101384.25;;;5.90;67.42
12182;BME280;6154;51.550;12.138;2023-11-18T03:35:15;101388.63;;;5.92;67.37
12182;BME280;6154;51.550;12.138;2023-11-18T03:37:44;101386.88;;;5.90;67.69
12182;BME280;6154;51.550;12.138;2023-11-18T03:40:13;101395.59;;;5.95;67.59
12182;BME280;6154;51.550;12.138;2023-11-18T03:42:42;101391.12;;;5.98;67.68
12182;BME280;6154;51.550;12.138;2023-11-18T03:45:10;101398.94;;;6.03;67.59
12182;BME280;6154;51.550;12.138;2023-11-18T03:47:38;101404.94;;;6.08;68.04
12182;BME280;6154;51.550;12.138;2023-11-18T03:50:07;101403.91;;;6.15;68.18
12182;BME280;6154;51.550;12.138;2023-11-18T03:52:42;101405.56;;;6.19;68.60
12182;BME280;6154;51.550;12.138;2023-11-18T03:55:10;101414.19;;;6.26;68.62
12182;BME280;6154;51.550;12.138;2023-11-18T03:57:39;101414.03;;;6.33;68.55
12182;BME280;6154;51.550;12.138;2023-11-18T04:00:08;101417.41;;;6.39;68.55
12182;BME280;6154;51.550;12.138;2023-11-18T04:02:39;101422.56;;;6.45;68.44
12182;BME280;6154;51.550;12.138;2023-11-18T04:05:08;101419.78;;;6.51;68.75
12182;BME280;6154;51.550;12.138;2023-11-18T04:07:37;101411.75;;;6.57;68.80
12182;BME280;6154;51.550;12.138;2023-11-18T04:10:08;101416.91;;;6.63;68.64
12182;BME280;6154;51.550;12.138;2023-11-18T04:12:37;101420.25;;;6.68;68.63
12182;BME280;6154;51.550;12.138;2023-11-18T04:15:06;101417.50;;;6.74;68.51
12182;BME280;6154;51.550;12.138;2023-11-18T04:17:34;101416.44;;;6.81;68.33
12182;BME280;6154;51.550;12.138;2023-11-18T04:20:03;101415.50;;;6.85;68.80
12182;BME280;6154;51.550;12.138;2023-11-18T04:22:39;101414.53;;;6.88;68.87
12182;BME280;6154;51.550;12.138;2023-11-18T04:25:10;101413.53;;;6.94;68.96
12182;BME280;6154;51.550;12.138;2023-11-18T04:27:39;101416.00;;;7.00;68.35
12182;BME280;6154;51.550;12.138;2023-11-18T04:30:12;101415.06;;;7.04;68.34
12182;BME280;6154;51.550;12.138;2023-11-18T04:32:41;101407.88;;;7.09;68.09
12182;BME280;6154;51.550;12.138;2023-11-18T04:35:10;101413.97;;;7.11;68.93
12182;BME280;6154;51.550;12.138;2023-11-18T04:37:40;101413.91;;;7.14;69.09
12182;BME280;6154;51.550;12.138;2023-11-18T04:40:12;101413.75;;;7.20;68.43
12182;BME280;6154;51.550;12.138;2023-11-18T04:42:40;101415.38;;;7.26;68.50
12182;BME280;6154;51.550;12.138;2023-11-18T04:45:10;101408.25;;;7.29;68.23
12182;BME280;6154;51.550;12.138;2023-11-18T04:47:38;101411.66;;;7.34;68.23
12182;BME280;6154;51.550;12.138;2023-11-18T04:50:08;101407.16;;;7.38;67.91
12182;BME280;6154;51.550;12.138;2023-11-18T04:52:37;101392.22;;;7.38;67.89
12182;BME280;6154;51.550;12.138;2023-11-18T04:55:06;101400.16;;;7.37;68.20
12182;BME280;6154;51.550;12.138;2023-11-18T04:57:35;101406.28;;;7.37;67.44
12182;BME280;6154;51.550;12.138;2023-11-18T05:00:07;101413.31;;;7.37;68.20
12182;BME280;6154;51.550;12.138;2023-11-18T05:02:38;101408.88;;;7.39;68.24
12182;BME280;6154;51.550;12.138;2023-11-18T05:05:07;101408.81;;;7.42;67.98
12182;BME280;6154;51.550;12.138;2023-11-18T05:07:35;101414.88;;;7.45;68.50
12182;BME280;6154;51.550;12.138;2023-11-18T05:10:04;101410.41;;;7.47;67.62
12182;BME280;6154;51.550;12.138;2023-11-18T05:12:36;101411.19;;;7.53;67.58
12182;BME280;6154;51.550;12.138;2023-11-18T05:15:07;101414.62;;;7.55;67.82
12182;BME280;6154;51.550;12.138;2023-11-18T05:17:36;101413.66;;;7.57;67.79
12182;BME280;6154;51.550;12.138;2023-11-18T05:20:06;101414.53;;;7.58;67.63
12182;BME280;6154;51.550;12.138;2023-11-18T05:22:36;101412.66;;;7.61;67.83
12182;BME280;6154;51.550;12.138;2023-11-18T05:25:05;101420.56;;;7.63;67.70
12182;BME280;6154;51.550;12.138;2023-11-18T05:27:34;101416.09;;;7.65;67.83
12182;BME280;6154;51.550;12.138;2023-11-18T05:30:05;101415.16;;;7.67;67.68
12182;BME280;6154;51.550;12.138;2023-11-18T05:32:33;101418.66;;;7.68;67.42
12182;BME280;6154;51.550;12.138;2023-11-18T05:35:02;101419.56;;;7.67;67.58
12182;BME280;6154;51.550;12.138;2023-11-18T05:37:32;101402.78;;;7.69;67.41
12182;BME280;6154;51.550;12.138;2023-11-18T05:40:06;101406.34;;;7.68;67.09
12182;BME280;6154;51.550;12.138;2023-11-18T05:42:34;101406.37;;;7.67;66.92
12182;BME280;6154;51.550;12.138;2023-11-18T05:45:08;101412.56;;;7.66;66.89
12182;BME280;6154;51.550;12.138;2023-11-18T05:47:44;101412.63;;;7.64;66.96
12182;BME280;6154;51.550;12.138;2023-11-18T05:50:12;101407.38;;;7.63;67.09
12182;BME280;6154;51.550;12.138;2023-11-18T05:52:42;101412.66;;;7.63;66.98
12182;BME280;6154;51.550;12.138;2023-11-18T05:55:10;101414.38;;;7.64;66.91
12182;BME280;6154;51.550;12.138;2023-11-18T05:57:39;101410.84;;;7.65;67.15
12182;BME280;6154;51.550;12.138;2023-11-18T06:00:09;101416.16;;;7.63;67.09
12182;BME280;6154;51.550;12.138;2023-11-18T06:02:51;101414.53;;;7.58;67.17
12182;BME280;6154;51.550;12.138;2023-11-18T06:05:19;101409.25;;;7.58;67.51
12182;BME280;6154;51.550;12.138;2023-11-18T06:07:47;101417.16;;;7.58;67.66
12182;BME280;6154;51.550;12.138;2023-11-18T06:10:17;101412.66;;;7.61;67.88
12182;BME280;6154;51.550;12.138;2023-11-18T06:12:47;101403.84;;;7.64;67.64
12182;BME280;6154;51.550;12.138;2023-11-18T06:15:17;101409.87;;;7.67;67.82
12182;BME280;6154;51.550;12.138;2023-11-18T06:17:46;101402.75;;;7.71;67.60
12182;BME280;6154;51.550;12.138;2023-11-18T06:20:15;101398.34;;;7.71;67.53
12182;BME280;6154;51.550;12.138;2023-11-18T06:22:44;101393.00;;;7.74;67.72
12182;BME280;6154;51.550;12.138;2023-11-18T06:25:12;101397.28;;;7.78;67.52
12182;BME280;6154;51.550;12.138;2023-11-18T06:27:43;101401.59;;;7.81;67.68
12182;BME280;6154;51.550;12.138;2023-11-18T06:30:12;101402.44;;;7.83;67.42
12182;BME280;6154;51.550;12.138;2023-11-18T06:32:44;101415.59;;;7.83;67.40
12182;BME280;6154;51.550;12.138;2023-11-18T06:35:14;101406.78;;;7.84;67.64
12182;BME280;6154;51.550;12.138;2023-11-18T06:37:42;101404.97;;;7.86;67.69
12182;BME280;6154;51.550;12.138;2023-11-18T06:40:12;101396.16;;;7.87;67.83
12182;BME280;6154;51.550;12.138;2023-11-18T06:42:45;101395.25;;;7.88;67.59
12182;BME280;6154;51.550;12.138;2023-11-18T06:45:14;101398.75;;;7.89;67.38
12182;BME280;6154;51.550;12.138;2023-11-18T06:47:45;101406.59;;;7.90;67.16
12182;BME280;6154;51.550;12.138;2023-11-18T06:50:14;101397.84;;;7.90;67.12
12182;BME280;6154;51.550;12.138;2023-11-18T06:52:43;101400.47;;;7.90;67.24
12182;BME280;6154;51.550;12.138;2023-11-18T06:55:14;101409.34;;;7.87;67.51
12182;BME280;6154;51.550;12.138;2023-11-18T06:57:43;101419.87;;;7.87;67.68
12182;BME280;6154;51.550;12.138;2023-11-18T07:00:12;101435.62;;;7.89;67.36
12182;BME280;6154;51.550;12.138;2023-11-18T07:02:42;101431.16;;;7.92;67.28
12182;BME280;6154;51.550;12.138;2023-11-18T07:05:12;101432.91;;;7.93;67.55
12182;BME280;6154;51.550;12.138;2023-11-18T07:07:41;101433.72;;;7.95;68.08
12182;BME280;6154;51.550;12.138;2023-11-18T07:10:11;101445.03;;;7.99;68.17
12182;BME280;6154;51.550;12.138;2023-11-18T07:12:40;101447.59;;;8.02;68.42
12182;BME280;6154;51.550;12.138;2023-11-18T07:15:09;101449.16;;;8.07;68.46
12182;BME280;6154;51.550;12.138;2023-11-18T07:17:38;101448.00;;;8.18;68.19
12182;BME280;6154;51.550;12.138;2023-11-18T07:20:11;101452.19;;;8.25;67.86
12182;BME280;6154;51.550;12.138;2023-11-18T07:22:40;101449.47;;;8.28;67.96
12182;BME280;6154;51.550;12.138;2023-11-18T07:25:08;101445.81;;;8.33;67.57
12182;BME280;6154;51.550;12.138;2023-11-18T07:27:37;101453.53;;;8.40;68.16
12182;BME280;6154;51.550;12.138;2023-11-18T07:30:06;101461.19;;;8.49;68.46
12182;BME280;6154;51.550;12.138;2023-11-18T07:32:37;101459.16;;;8.58;68.58
12182;BME280;6154;51.550;12.138;2023-11-18T07:35:08;101458.97;;;8.64;68.44
12182;BME280;6154;51.550;12.138;2023-11-18T07:37:38;101459.63;;;8.71;68.09
12182;BME280;6154;51.550;12.138;2023-11-18T07:40:07;101462.94;;;8.78;68.24
12182;BME280;6154;51.550;12.138;2023-11-18T07:42:39;101468.91;;;8.84;67.89
12182;BME280;6154;51.550;12.138;2023-11-18T07:45:08;101479.25;;;8.92;68.29
12182;BME280;6154;51.550;12.138;2023-11-18T07:47:45;101475.47;;;8.99;68.71
12182;BME280;6154;51.550;12.138;2023-11-18T07:50:16;101480.56;;;9.05;68.21
12182;BME280;6154;51.550;12.138;2023-11-18T07:52:45;101491.84;;;9.10;68.46
12182;BME280;6154;51.550;12.138;2023-11-18T07:55:14;101492.69;;;9.12;69.08
12182;BME280;6154;51.550;12.138;2023-11-18T07:57:42;101494.34;;;9.15;69.30
12182;BME280;6154;51.550;12.138;2023-11-18T08:00:12;101487.28;;;9.15;69.39
12182;BME280;6154;51.550;12.138;2023-11-18T08:02:42;101497.63;;;9.21;68.86
12182;BME280;6154;51.550;12.138;2023-11-18T08:05:11;101497.63;;;9.23;68.21
12182;BME280;6154;51.550;12.138;2023-11-18T08:07:44;101495.84;;;9.24;69.19
12182;BME280;6154;51.550;12.138;2023-11-18T08:10:12;101492.13;;;9.29;69.55
12182;BME280;6154;51.550;12.138;2023-11-18T08:12:46;101490.09;;;9.37;69.57
12182;BME280;6154;51.550;12.138;2023-11-18T08:15:14;101491.47;;;9.49;69.67
12182;BME280;6154;51.550;12.138;2023-11-18T08:17:42;101490.97;;;9.64;69.31
12182;BME280;6154;51.550;12.138;2023-11-18T08:20:10;101481.94;;;9.70;68.98
12182;BME280;6154;51.550;12.138;2023-11-18T08:22:41;101484.94;;;9.86;69.19
12182;BME280;6154;51.550;12.138;2023-11-18T08:25:13;101491.63;;;9.96;68.62
12182;BME280;6154;51.550;12.138;2023-11-18T08:27:42;101487.84;;;10.03;68.41
12182;BME280;6154;51.550;12.138;2023-11-18T08:30:11;101485.78;;;10.11;68.80
12182;BME280;6154;51.550;12.138;2023-11-18T08:32:41;101492.50;;;10.20;68.90
12182;BME280;6154;51.550;12.138;2023-11-18T08:35:11;101484.34;;;10.27;68.81
12182;BME280;6154;51.550;12.138;2023-11-18T08:37:42;101482.44;;;10.31;68.79
12182;BME280;6154;51.550;12.138;2023-11-18T08:40:13;101470.66;;;10.40;68.52
12182;BME280;6154;51.550;12.138;2023-11-18T08:42:44;101478.13;;;10.52;68.31
12182;BME280;6154;51.550;12.138;2023-11-18T08:45:18;101480.31;;;10.64;68.19
12182;BME280;6154;51.550;12.138;2023-11-18T08:47:49;101472.91;;;10.74;67.37
12182;BME280;6154;51.550;12.138;2023-11-18T08:50:20;101474.19;;;10.85;67.41
12182;BME280;6154;51.550;12.138;2023-11-18T08:52:51;101467.63;;;10.96;67.18
12182;BME280;6154;51.550;12.138;2023-11-18T08:55:27;101477.94;;;11.02;67.25
12182;BME280;6154;51.550;12.138;2023-11-18T08:58:11;101479.00;;;10.98;67.33
12182;BME280;6154;51.550;12.138;2023-11-18T09:00:49;101488.59;;;11.00;66.83
12182;BME280;6154;51.550;12.138;2023-11-18T09:03:23;101496.50;;;11.02;66.10
12182;BME280;6154;51.550;12.138;2023-11-18T09:05:57;101489.25;;;11.07;66.10
12182;BME280;6154;51.550;12.138;2023-11-18T09:08:28;101494.34;;;11.11;66.48
12182;BME280;6154;51.550;12.138;2023-11-18T09:11:01;101496.38;;;11.05;66.72
12182;BME280;6154;51.550;12.138;2023-11-18T09:13:31;101494.53;;;11.07;66.72
12182;BME280;6154;51.550;12.138;2023-11-18T09:16:03;101488.88;;;11.16;67.05
12182;BME280;6154;51.550;12.138;2023-11-18T09:18:36;101492.09;;;11.24;67.06
12182;BME280;6154;51.550;12.138;2023-11-18T09:21:10;101496.25;;;11.30;66.73
12182;BME280;6154;51.550;12.138;2023-11-18T09:23:43;101495.63;;;11.45;65.96
12182;BME280;6154;51.550;12.138;2023-11-18T09:26:13;101490.81;;;11.55;66.53
12182;BME280;6154;51.550;12.138;2023-11-18T09:28:42;101492.22;;;11.63;66.38
12182;BME280;6154;51.550;12.138;2023-11-18T09:31:11;101489.38;;;11.68;66.07
12182;BME280;6154;51.550;12.138;2023-11-18T09:33:40;101489.38;;;11.68;65.58
12182;BME280;6154;51.550;12.138;2023-11-18T09:36:14;101489.72;;;11.80;65.87
12182;BME280;6154;51.550;12.138;2023-11-18T09:38:45;101482.53;;;11.84;65.42
12182;BME280;6154;51.550;12.138;2023-11-18T09:41:17;101493.00;;;11.87;65.44
12182;BME280;6154;51.550;12.138;2023-11-18T09:43:46;101491.25;;;11.86;65.25
12182;BME280;6154;51.550;12.138;2023-11-18T09:46:16;101491.91;;;11.91;65.32
12182;BME280;6154;51.550;12.138;2023-11-18T09:48:47;101489.53;;;11.85;65.26
12182;BME280;6154;51.550;12.138;2023-11-18T09:51:21;101491.97;;;11.90;65.43
12182;BME280;6154;51.550;12.138;2023-11-18T09:53:50;101487.47;;;11.92;65.20
12182;BME280;6154;51.550;12.138;2023-11-18T09:56:31;101488.84;;;12.00;65.12
12182;BME280;6154;51.550;12.138;2023-11-18T09:59:11;101479.84;;;12.04;64.56
12182;BME280;6154;51.550;12.138;2023-11-18T10:01:46;101486.59;;;12.12;65.03
12182;BME280;6154;51.550;12.138;2023-11-18T10:04:20;101483.31;;;12.06;64.18
12182;BME280;6154;51.550;12.138;2023-11-18T10:06:49;101481.97;;;12.17;64.55
12182;BME280;6154;51.550;12.138;2023-11-18T10:09:20;101479.03;;;12.23;64.66
12182;BME280;6154;51.550;12.138;2023-11-18T10:11:56;101481.69;;;12.23;64.90
12182;BME280;6154;51.550;12.138;2023-11-18T10:14:33;101473.59;;;12.26;64.82
12182;BME280;6154;51.550;12.138;2023-11-18T10:17:04;101477.47;;;12.37;64.82
12182;BME280;6154;51.550;12.138;2023-11-18T10:19:49;101475.69;;;12.38;64.61
12182;BME280;6154;51.550;12.138;2023-11-18T10:22:23;101471.31;;;12.37;63.70
12182;BME280;6154;51.550;12.138;2023-11-18T10:24:53;101467.87;;;12.35;64.42
12182;BME280;6154;51.550;12.138;2023-11-18T10:27:25;101475.59;;;12.40;64.60
12182;BME280;6154;51.550;12.138;2023-11-18T10:29:58;101477.47;;;12.37;64.16
12182;BME280;6154;51.550;12.138;2023-11-18T10:32:31;101471.03;;;12.43;64.18
12182;BME280;6154;51.550;12.138;2023-11-18T10:35:03;101467.44;;;12.44;63.59
12182;BME280;6154;51.550;12.138;2023-11-18T10:37:33;101466.00;;;12.56;64.08
12182;BME280;6154;51.550;12.138;2023-11-18T10:40:10;101457.63;;;12.65;64.18
12182;BME280;6154;51.550;12.138;2023-11-18T10:42:41;101460.13;;;12.68;63.63
12182;BME280;6154;51.550;12.138;2023-11-18T10:45:23;101446.84;;;12.68;63.09
12182;BME280;6154;51.550;12.138;2023-11-18T10:47:52;101462.69;;;12.70;62.75
12182;BME280;6154;51.550;12.138;2023-11-18T10:50:25;101462.78;;;12.68;64.66
12182;BME280;6154;51.550;12.138;2023-11-18T10:53:00;101465.16;;;12.93;63.62
12182;BME280;6154;51.550;12.138;2023-11-18T10:55:35;101463.44;;;13.09;63.65
12182;BME280;6154;51.550;12.138;2023-11-18T10:58:05;101463.09;;;13.17;62.41
12182;BME280;6154;51.550;12.138;2023-11-18T11:00:55;101472.56;;;13.22;62.84
12182;BME280;6154;51.550;12.138;2023-11-18T11:03:27;101469.47;;;13.32;61.98
12182;BME280;6154;51.550;12.138;2023-11-18T11:06:00;101465.03;;;13.49;63.40
12182;BME280;6154;51.550;12.138;2023-11-18T11:08:44;101462.59;;;13.62;63.10
12182;BME280;6154;51.550;12.138;2023-11-18T11:11:16;101445.78;;;13.62;62.55
12182;BME280;6154;51.550;12.138;2023-11-18T11:13:54;101450.25;;;13.61;62.65
12182;BME280;6154;51.550;12.138;2023-11-18T11:16:30;101444.16;;;13.59;61.81
12182;BME280;6154;51.550;12.138;2023-11-18T11:19:04;101432.66;;;13.59;62.00
12182;BME280;6154;51.550;12.138;2023-11-18T11:21:42;101438.34;;;13.51;61.32
12182;BME280;6154;51.550;12.138;2023-11-18T11:24:20;101440.22;;;13.49;61.36
12182;BME280;6154;51.550;12.138;2023-11-18T11:27:09;101432.41;;;13.46;61.58
12182;BME280;6154;51.550;12.138;2023-11-18T11:29:51;101435.06;;;13.46;61.63
12182;BME280;6154;51.550;12.138;2023-11-18T11:32:27;101429.03;;;13.60;61.92
12182;BME280;6154;51.550;12.138;2023-11-18T11:35:01;101428.56;;;13.69;62.43
12182;BME280;6154;51.550;12.138;2023-11-18T11:37:35;101430.19;;;13.71;61.92
12182;BME280;6154;51.550;12.138;2023-11-18T11:40:07;101429.22;;;13.57;61.89
12182;BME280;6154;51.550;12.138;2023-11-18T11:42:37;101423.41;;;13.48;62.10
12182;BME280;6154;51.550;12.138;2023-11-18T11:45:09;101433.50;;;13.42;62.76
12182;BME280;6154;51.550;12.138;2023-11-18T11:47:48;101429.69;;;13.47;62.60
12182;BME280;6154;51.550;12.138;2023-11-18T11:50:21;101414.41;;;13.51;62.12
12182;BME280;6154;51.550;12.138;2023-11-18T11:53:02;101399.47;;;13.48;61.55
12182;BME280;6154;51.550;12.138;2023-11-18T11:55:38;101393.69;;;13.58;62.12
12182;BME280;6154;51.550;12.138;2023-11-18T11:58:25;101385.47;;;13.62;61.89
12182;BME280;6154;51.550;12.138;2023-11-18T12:00:58;101382.25;;;13.73;60.77
12182;BME280;6154;51.550;12.138;2023-11-18T12:03:28;101379.94;;;13.82;61.03
12182;BME280;6154;51.550;12.138;2023-11-18T12:06:04;101366.03;;;13.77;61.22
12182;BME280;6154;51.550;12.138;2023-11-18T12:08:41;101368.22;;;13.87;61.54
12182;BME280;6154;51.550;12.138;2023-11-18T12:11:11;101369.47;;;13.79;59.84
12182;BME280;6154;51.550;12.138;2023-11-18T12:13:59;101370.84;;;14.04;61.36
12182;BME280;6154;51.550;12.138;2023-11-18T12:16:59;101354.69;;;14.07;59.69
12182;BME280;6154;51.550;12.138;2023-11-18T12:19:36;101355.81;;;14.03;59.44
12182;BME280;6154;51.550;12.138;2023-11-18T12:22:12;101360.50;;;13.98;60.78
12182;BME280;6154;51.550;12.138;2023-11-18T12:28:07;101350.91;;;14.11;59.63
12182;BME280;6154;51.550;12.138;2023-11-18T12:30:40;101360.69;;;14.10;60.53
12182;BME280;6154;51.550;12.138;2023-11-18T12:33:21;101349.81;;;14.15;60.78
12182;BME280;6154;51.550;12.138;2023-11-18T12:39:26;101348.69;;;14.19;58.87
12182;BME280;6154;51.550;12.138;2023-11-18T12:42:04;101346.47;;;14.27;59.79
12182;BME280;6154;51.550;12.138;2023-11-18T12:44:52;101345.63;;;14.27;60.34
12182;BME280;6154;51.550;12.138;2023-11-18T12:47:29;101327.91;;;14.26;59.60
12182;BME280;6154;51.550;12.138;2023-11-18T12:50:00;101314.09;;;14.19;60.49
12182;BME280;6154;51.550;12.138;2023-11-18T12:52:32;101304.37;;;14.18;60.56
12182;BME280;6154;51.550;12.138;2023-11-18T12:55:01;101291.34;;;14.14;60.55
12182;BME280;6154;51.550;12.138;2023-11-18T12:57:34;101289.97;;;14.06;60.54
12182;BME280;6154;51.550;12.138;2023-11-18T13:00:06;101301.19;;;13.96;60.82
12182;BME280;6154;51.550;12.138;2023-11-18T13:02:38;101298.84;;;13.90;60.79
12182;BME280;6154;51.550;12.138;2023-11-18T13:05:09;101292.16;;;13.82;60.94
12182;BME280;6154;51.550;12.138;2023-11-18T13:07:38;101294.03;;;13.80;61.04
12182;BME280;6154;51.550;12.138;2023-11-18T13:10:07;101298.06;;;13.72;60.66
12182;BME280;6154;51.550;12.138;2023-11-18T13:12:35;101292.06;;;13.68;61.18
12182;BME280;6154;51.550;12.138;2023-11-18T13:15:05;101286.12;;;13.63;61.26
12182;BME280;6154;51.550;12.138;2023-11-18T13:17:35;101284.37;;;13.62;61.28
12182;BME280;6154;51.550;12.138;2023-11-18T13:20:13;101280.09;;;13.60;61.02
12182;BME280;6154;51.550;12.138;2023-11-18T13:22:41;101287.41;;;13.56;60.86
12182;BME280;6154;51.550;12.138;2023-11-18T13:25:14;101290.22;;;13.53;61.21